Time;durP1;ratioP1;P1;durP2;ratioP2;P2;SDS_P1;SDS_P2;PMS_P1;PMS_P2;Temp;Humidity;BMP_temperature;BMP_pressure;BME280_temperature;BME280_humidity;BME280_pressure;Samples;Min_cycle;Max_cycle;Signal;HPM_P1;HPM_P2
2022/08/06 00:02:20;;;;;;;2.07;1.87;;;;;;;;;;5000346;28;20927;-77
2022/08/06 00:04:46;;;;;;;2.60;2.07;;;;;;;;;;5002844;28;20428;-78
2022/08/06 00:07:12;;;;;;;2.30;2.10;;;;;;;;;;5002478;28;20452;-77
2022/08/06 00:09:38;;;;;;;2.90;2.10;;;;;;;;;;4984574;28;20456;-79
2022/08/06 00:12:04;;;;;;;2.30;2.10;;;;;;;;;;5005042;28;20464;-79
2022/08/06 00:14:30;;;;;;;3.03;2.60;;;;;;;;;;5004465;28;20559;-76
2022/08/06 00:16:56;;;;;;;3.20;2.70;;;;;;;;;;5001562;28;20444;-79
2022/08/06 00:19:22;;;;;;;2.37;2.17;;;;;;;;;;5004863;28;20462;-78
2022/08/06 00:21:48;;;;;;;2.10;1.87;;;;;;;;;;5005596;28;20432;-78
2022/08/06 00:24:14;;;;;;;2.33;2.13;;;;;;;;;;5006904;28;20935;-80
2022/08/06 00:26:40;;;;;;;2.30;2.00;;;;;;;;;;5004937;28;20421;-78
2022/08/06 00:29:06;;;;;;;3.20;2.10;;;;;;;;;;5009104;28;20439;-78
2022/08/06 00:31:32;;;;;;;5.40;2.67;;;;;;;;;;5002911;28;20588;-78
2022/08/06 00:34:01;;;;;;;3.30;2.27;;;;;;;;;;4991220;28;20843;-78
2022/08/06 00:36:27;;;;;;;4.80;2.50;;;;;;;;;;5005057;28;20434;-79
2022/08/06 00:38:53;;;;;;;2.50;1.90;;;;;;;;;;5001909;28;20462;-78
2022/08/06 00:41:19;;;;;;;2.80;2.20;;;;;;;;;;5006286;28;20519;-77
2022/08/06 00:43:45;;;;;;;2.30;2.10;;;;;;;;;;4984440;28;20451;-79
2022/08/06 00:46:11;;;;;;;2.20;2.00;;;;;;;;;;4986379;28;20704;-77
2022/08/06 00:48:37;;;;;;;2.47;2.20;;;;;;;;;;5003177;28;20432;-78
2022/08/06 00:51:03;;;;;;;5.97;2.00;;;;;;;;;;4984882;28;20223;-78
2022/08/06 00:53:29;;;;;;;3.53;2.13;;;;;;;;;;4999528;28;20432;-77
2022/08/06 00:55:55;;;;;;;2.70;1.60;;;;;;;;;;5003234;28;20447;-77
2022/08/06 00:58:21;;;;;;;2.17;1.93;;;;;;;;;;5001607;28;20891;-77
2022/08/06 01:00:47;;;;;;;3.20;2.47;;;;;;;;;;4997538;28;20996;-78
2022/08/06 01:03:17;;;;;;;2.60;2.10;;;;;;;;;;5000520;28;20425;-78
2022/08/06 01:05:44;;;;;;;3.47;2.17;;;;;;;;;;5003500;28;20545;-77
2022/08/06 01:08:10;;;;;;;4.07;2.30;;;;;;;;;;5003827;28;20436;-78
2022/08/06 01:10:36;;;;;;;3.00;1.97;;;;;;;;;;5007567;28;20546;-78
2022/08/06 01:13:03;;;;;;;1.87;1.70;;;;;;;;;;4986715;28;20480;-78
2022/08/06 01:15:29;;;;;;;3.53;2.07;;;;;;;;;;5004917;28;20455;-77
2022/08/06 01:17:56;;;;;;;3.40;1.83;;;;;;;;;;4972249;28;20447;-77
2022/08/06 01:20:28;;;;;;;2.20;1.60;;;;;;;;;;4982781;28;20441;-79
2022/08/06 01:23:03;;;;;;;3.50;2.00;;;;;;;;;;5002965;28;20943;-77
2022/08/06 01:25:38;;;;;;;2.13;1.90;;;;;;;;;;4993939;28;20443;-78
2022/08/06 01:28:13;;;;;;;2.10;1.60;;;;;;;;;;4995136;28;20486;-78
2022/08/06 01:30:50;;;;;;;1.70;1.60;;;;;;;;;;4991439;28;20503;-79
2022/08/06 01:33:19;;;;;;;3.40;1.70;;;;;;;;;;4999558;28;20451;-77
2022/08/06 01:35:47;;;;;;;2.67;1.53;;;;;;;;;;5013442;28;20444;-77
2022/08/06 01:38:18;;;;;;;2.80;2.30;;;;;;;;;;4995549;28;20812;-77
2022/08/06 01:40:47;;;;;;;2.43;1.70;;;;;;;;;;5010230;28;20461;-79
2022/08/06 01:43:14;;;;;;;4.23;2.00;;;;;;;;;;4999080;28;20490;-77
2022/08/06 01:45:40;;;;;;;2.83;1.60;;;;;;;;;;5000093;28;20443;-79
2022/08/06 01:48:09;;;;;;;2.27;2.00;;;;;;;;;;5012195;28;20457;-77
2022/08/06 01:50:38;;;;;;;1.83;1.70;;;;;;;;;;5007689;28;20562;-78
2022/08/06 01:53:05;;;;;;;4.00;2.00;;;;;;;;;;4987808;28;20435;-80
2022/08/06 01:55:32;;;;;;;2.20;2.00;;;;;;;;;;4995040;28;20440;-79
2022/08/06 01:57:58;;;;;;;2.23;2.00;;;;;;;;;;5006879;28;20445;-79
2022/08/06 02:00:27;;;;;;;2.20;2.00;;;;;;;;;;4990967;28;20444;-77
2022/08/06 02:02:53;;;;;;;5.07;2.33;;;;;;;;;;5003472;28;20527;-77
2022/08/06 02:05:20;;;;;;;2.70;1.70;;;;;;;;;;5005373;28;20551;-76
2022/08/06 02:07:46;;;;;;;2.43;1.70;;;;;;;;;;4986781;28;20440;-76
2022/08/06 02:10:12;;;;;;;1.67;1.40;;;;;;;;;;4990609;28;20486;-78
2022/08/06 02:12:39;;;;;;;2.83;1.93;;;;;;;;;;4989113;28;20439;-78
2022/08/06 02:15:05;;;;;;;3.13;2.00;;;;;;;;;;4988727;28;20528;-78
2022/08/06 02:17:35;;;;;;;3.13;2.00;;;;;;;;;;4987755;28;20450;-75
2022/08/06 02:20:01;;;;;;;2.80;2.00;;;;;;;;;;5008043;28;20421;-78
2022/08/06 02:22:29;;;;;;;1.90;1.60;;;;;;;;;;4989562;28;20452;-78
2022/08/06 02:24:55;;;;;;;2.40;2.03;;;;;;;;;;4994000;28;20511;-77
2022/08/06 02:27:21;;;;;;;2.00;1.50;;;;;;;;;;4989665;28;20882;-77
2022/08/06 02:29:47;;;;;;;3.13;1.70;;;;;;;;;;4998022;28;20212;-78
2022/08/06 02:32:14;;;;;;;2.13;1.93;;;;;;;;;;4986906;28;20900;-77
2022/08/06 02:34:40;;;;;;;3.70;1.80;;;;;;;;;;5003513;28;20451;-77
2022/08/06 02:37:13;;;;;;;2.53;1.87;;;;;;;;;;4986319;28;20441;-77
2022/08/06 02:39:45;;;;;;;1.83;1.63;;;;;;;;;;4983922;28;20424;-77
2022/08/06 02:42:21;;;;;;;2.00;1.33;;;;;;;;;;5004649;28;20823;-78
2022/08/06 02:45:07;;;;;;;4.90;2.00;;;;;;;;;;5001137;28;20478;-77
2022/08/06 02:47:52;;;;;;;2.87;2.07;;;;;;;;;;4988665;28;20448;-76
2022/08/06 02:50:18;;;;;;;2.70;1.87;;;;;;;;;;5003700;28;20479;-76
2022/08/06 02:52:45;;;;;;;2.07;1.77;;;;;;;;;;4997600;28;20482;-78
2022/08/06 02:55:15;;;;;;;1.77;1.60;;;;;;;;;;4988272;28;20745;-79
2022/08/06 02:57:43;;;;;;;2.67;2.13;;;;;;;;;;4973808;28;20455;-79
2022/08/06 03:00:10;;;;;;;2.63;1.70;;;;;;;;;;4988868;28;20482;-79
2022/08/06 03:02:36;;;;;;;3.00;1.90;;;;;;;;;;4990579;28;21141;-79
2022/08/06 03:05:04;;;;;;;8.63;2.07;;;;;;;;;;4996640;28;20693;-78
2022/08/06 03:07:30;;;;;;;1.70;1.60;;;;;;;;;;4999680;28;20425;-78
2022/08/06 03:09:56;;;;;;;2.30;2.10;;;;;;;;;;5010367;28;21070;-78
2022/08/06 03:12:22;;;;;;;2.40;2.00;;;;;;;;;;4991650;28;20526;-78
2022/08/06 03:14:48;;;;;;;1.90;1.50;;;;;;;;;;5001949;28;20535;-78
2022/08/06 03:17:15;;;;;;;1.90;1.50;;;;;;;;;;5006580;28;20189;-78
2022/08/06 03:19:41;;;;;;;5.43;2.37;;;;;;;;;;5001436;28;20536;-79
2022/08/06 03:22:07;;;;;;;5.50;2.03;;;;;;;;;;4988412;28;20476;-79
2022/08/06 03:24:33;;;;;;;2.57;2.00;;;;;;;;;;4999647;28;21041;-78
2022/08/06 03:26:59;;;;;;;1.70;1.60;;;;;;;;;;4984253;28;20873;-78
2022/08/06 03:29:28;;;;;;;8.67;2.20;;;;;;;;;;5002283;28;20226;-78
2022/08/06 03:31:54;;;;;;;2.90;1.30;;;;;;;;;;4998301;28;22055;-76
2022/08/06 03:34:20;;;;;;;2.20;1.77;;;;;;;;;;5003332;28;20949;-79
2022/08/06 03:36:46;;;;;;;4.80;2.33;;;;;;;;;;5006301;28;20439;-78
2022/08/06 03:39:12;;;;;;;4.50;2.13;;;;;;;;;;4984027;28;20440;-78
2022/08/06 03:41:38;;;;;;;2.93;1.73;;;;;;;;;;5002920;28;20192;-78
2022/08/06 03:44:04;;;;;;;2.30;1.63;;;;;;;;;;4987584;28;21071;-78
2022/08/06 03:46:50;;;;;;;2.10;1.90;;;;;;;;;;5005111;28;20441;-79
2022/08/06 03:49:24;;;;;;;2.87;2.67;;;;;;;;;;4990579;28;20432;-77
2022/08/06 03:51:50;;;;;;;2.33;2.13;;;;;;;;;;5002516;28;20525;-77
2022/08/06 03:54:18;;;;;;;2.70;1.97;;;;;;;;;;4988778;28;20455;-76
2022/08/06 03:56:44;;;;;;;3.83;1.73;;;;;;;;;;5001258;28;20447;-77
2022/08/06 03:59:10;;;;;;;2.63;1.80;;;;;;;;;;4987152;28;20432;-76
2022/08/06 04:01:37;;;;;;;2.23;2.00;;;;;;;;;;5001684;28;20530;-77
2022/08/06 04:04:03;;;;;;;2.30;2.10;;;;;;;;;;4989889;28;20430;-76
2022/08/06 04:06:29;;;;;;;5.43;2.47;;;;;;;;;;4968240;28;20437;-77
2022/08/06 04:08:55;;;;;;;1.83;1.70;;;;;;;;;;4987592;28;20444;-77
2022/08/06 04:11:21;;;;;;;5.40;1.93;;;;;;;;;;4985905;28;20216;-77
2022/08/06 04:13:49;;;;;;;3.30;2.00;;;;;;;;;;5000724;28;20526;-77
2022/08/06 04:16:15;;;;;;;1.90;1.70;;;;;;;;;;5001491;28;20188;-77
2022/08/06 04:18:41;;;;;;;3.13;2.03;;;;;;;;;;4986018;28;20452;-77
2022/08/06 04:21:09;;;;;;;2.47;2.27;;;;;;;;;;5001288;28;20456;-76
2022/08/06 04:23:37;;;;;;;5.00;2.23;;;;;;;;;;5000119;28;20424;-76
2022/08/06 04:26:03;;;;;;;2.30;1.70;;;;;;;;;;4985006;28;20534;-76
2022/08/06 04:28:32;;;;;;;3.37;2.17;;;;;;;;;;5002732;28;20522;-76
2022/08/06 04:30:58;;;;;;;3.60;2.37;;;;;;;;;;4989996;28;20476;-77
2022/08/06 04:33:27;;;;;;;2.17;1.73;;;;;;;;;;4988362;28;20447;-78
2022/08/06 04:35:53;;;;;;;2.07;1.87;;;;;;;;;;5002179;28;20432;-77
2022/08/06 04:38:21;;;;;;;2.60;2.07;;;;;;;;;;4986584;28;20432;-77
2022/08/06 04:40:47;;;;;;;2.77;2.17;;;;;;;;;;5004210;28;20442;-75
2022/08/06 04:43:13;;;;;;;2.93;2.20;;;;;;;;;;5007870;28;20436;-77
2022/08/06 04:45:43;;;;;;;3.93;2.27;;;;;;;;;;4988156;28;20523;-77
2022/08/06 04:48:10;;;;;;;4.90;1.77;;;;;;;;;;4986527;28;20509;-77
2022/08/06 04:50:36;;;;;;;3.77;1.87;;;;;;;;;;5003826;28;20506;-76
2022/08/06 04:53:09;;;;;;;3.73;2.17;;;;;;;;;;4996451;28;20431;-76
2022/08/06 04:55:38;;;;;;;2.10;1.70;;;;;;;;;;4983954;28;20817;-77
2022/08/06 04:58:05;;;;;;;3.40;1.90;;;;;;;;;;4983566;28;20443;-76
2022/08/06 05:00:32;;;;;;;2.77;1.87;;;;;;;;;;4982315;28;20433;-76
2022/08/06 05:02:58;;;;;;;3.47;2.20;;;;;;;;;;4997181;28;20444;-75
2022/08/06 05:05:24;;;;;;;5.67;2.50;;;;;;;;;;5003326;28;20432;-77
2022/08/06 05:07:51;;;;;;;3.00;2.43;;;;;;;;;;4967430;28;21238;-74
2022/08/06 05:10:17;;;;;;;4.80;2.17;;;;;;;;;;4986229;28;20484;-76
2022/08/06 05:12:44;;;;;;;2.47;2.00;;;;;;;;;;5003333;28;20437;-76
2022/08/06 05:15:25;;;;;;;3.17;2.20;;;;;;;;;;4995983;28;20432;-75
2022/08/06 05:18:00;;;;;;;3.03;1.77;;;;;;;;;;5006511;28;20473;-76
2022/08/06 05:20:27;;;;;;;3.90;2.50;;;;;;;;;;5006006;28;20514;-77
2022/08/06 05:22:54;;;;;;;2.60;2.00;;;;;;;;;;5004197;28;20478;-79
2022/08/06 05:25:20;;;;;;;2.33;2.00;;;;;;;;;;4992449;28;20440;-75
2022/08/06 05:27:46;;;;;;;2.50;2.00;;;;;;;;;;5006093;28;20438;-75
2022/08/06 05:30:12;;;;;;;3.10;2.07;;;;;;;;;;4992840;28;20467;-74
2022/08/06 05:32:58;;;;;;;3.93;2.07;;;;;;;;;;5004883;28;20434;-77
2022/08/06 05:35:24;;;;;;;3.70;2.13;;;;;;;;;;5009181;28;20519;-78
2022/08/06 05:37:50;;;;;;;3.60;2.03;;;;;;;;;;4988815;28;20534;-76
2022/08/06 05:40:16;;;;;;;2.70;2.20;;;;;;;;;;5002353;28;20522;-76
2022/08/06 05:42:42;;;;;;;3.10;2.03;;;;;;;;;;5008447;28;20457;-76
2022/08/06 05:45:09;;;;;;;2.87;2.30;;;;;;;;;;5006857;28;20441;-77
2022/08/06 05:47:37;;;;;;;4.60;1.93;;;;;;;;;;5004311;28;20449;-77
2022/08/06 05:50:05;;;;;;;3.40;2.70;;;;;;;;;;4991412;28;21092;-75
2022/08/06 05:52:37;;;;;;;3.90;2.50;;;;;;;;;;4978752;28;20450;-78
2022/08/06 05:55:05;;;;;;;7.03;2.40;;;;;;;;;;5001769;28;20432;-76
2022/08/06 05:57:34;;;;;;;3.10;2.20;;;;;;;;;;4978640;28;20525;-76
2022/08/06 06:00:02;;;;;;;2.10;1.87;;;;;;;;;;5006933;28;20435;-76
2022/08/06 06:02:28;;;;;;;2.60;2.10;;;;;;;;;;4983228;28;20947;-77
2022/08/06 06:04:54;;;;;;;4.30;2.20;;;;;;;;;;4991237;28;20538;-75
2022/08/06 06:07:20;;;;;;;4.07;2.20;;;;;;;;;;4993210;28;20930;-76
2022/08/06 06:09:46;;;;;;;2.73;2.40;;;;;;;;;;4989790;28;20447;-75
2022/08/06 06:12:12;;;;;;;2.40;1.90;;;;;;;;;;5004112;28;20447;-76
2022/08/06 06:14:42;;;;;;;2.80;2.07;;;;;;;;;;4993868;28;20447;-75
2022/08/06 06:17:16;;;;;;;3.40;2.10;;;;;;;;;;5003135;28;20486;-75
2022/08/06 06:19:42;;;;;;;4.83;2.10;;;;;;;;;;4994315;28;20432;-74
2022/08/06 06:22:16;;;;;;;4.00;2.47;;;;;;;;;;5006438;28;20442;-75
2022/08/06 06:25:02;;;;;;;9.20;2.50;;;;;;;;;;5009432;28;20240;-75
2022/08/06 06:27:42;;;;;;;2.93;2.60;;;;;;;;;;5012655;28;20604;-75
2022/08/06 06:30:09;;;;;;;2.80;2.23;;;;;;;;;;5000015;28;20493;-76
2022/08/06 06:32:41;;;;;;;2.03;1.90;;;;;;;;;;5000868;28;20428;-76
2022/08/06 06:35:10;;;;;;;2.93;2.13;;;;;;;;;;5004024;28;20444;-75
2022/08/06 06:37:38;;;;;;;3.30;2.20;;;;;;;;;;5001778;28;20531;-75
2022/08/06 06:40:16;;;;;;;3.30;3.00;;;;;;;;;;4989621;28;20475;-76
2022/08/06 06:43:01;;;;;;;6.00;3.27;;;;;;;;;;5002573;28;20850;-75
2022/08/06 06:45:46;;;;;;;2.90;2.70;;;;;;;;;;4997602;28;20432;-75
2022/08/06 06:48:26;;;;;;;3.17;2.50;;;;;;;;;;5000394;28;20435;-76
2022/08/06 06:50:53;;;;;;;3.97;2.40;;;;;;;;;;5000342;28;20467;-76
2022/08/06 06:53:19;;;;;;;4.13;2.30;;;;;;;;;;4990293;28;20455;-76
2022/08/06 06:55:45;;;;;;;3.93;2.70;;;;;;;;;;5004737;28;20954;-76
2022/08/06 06:58:37;;;;;;;2.70;2.47;;;;;;;;;;4992163;28;20513;-77
2022/08/06 07:01:08;;;;;;;5.53;2.70;;;;;;;;;;4997989;28;20572;-76
2022/08/06 07:03:35;;;;;;;4.33;2.17;;;;;;;;;;4988301;28;20801;-76
2022/08/06 07:06:02;;;;;;;2.90;2.60;;;;;;;;;;4989942;28;21334;-77
2022/08/06 07:08:34;;;;;;;7.03;2.60;;;;;;;;;;5000996;28;20519;-76
2022/08/06 07:11:00;;;;;;;4.27;2.33;;;;;;;;;;4971076;28;20943;-76
2022/08/06 07:13:29;;;;;;;4.17;2.40;;;;;;;;;;5006246;28;20440;-76
2022/08/06 07:15:55;;;;;;;3.50;2.80;;;;;;;;;;4996167;28;20558;-76
2022/08/06 07:18:22;;;;;;;3.03;2.53;;;;;;;;;;5009261;28;20632;-76
2022/08/06 07:20:50;;;;;;;2.93;2.53;;;;;;;;;;4988775;28;20193;-76
2022/08/06 07:23:18;;;;;;;2.73;2.50;;;;;;;;;;5006748;28;20444;-78
2022/08/06 07:25:48;;;;;;;3.40;2.63;;;;;;;;;;4991562;28;20424;-77
2022/08/06 07:28:14;;;;;;;2.70;2.50;;;;;;;;;;5004844;28;20963;-77
2022/08/06 07:30:40;;;;;;;3.43;2.57;;;;;;;;;;4988074;28;20487;-76
2022/08/06 07:33:07;;;;;;;4.10;2.33;;;;;;;;;;5003810;28;20186;-77
2022/08/06 07:35:38;;;;;;;3.10;2.63;;;;;;;;;;4990454;28;20512;-77
2022/08/06 07:38:05;;;;;;;4.27;2.80;;;;;;;;;;4994032;28;20439;-77
2022/08/06 07:40:33;;;;;;;4.80;2.80;;;;;;;;;;4982843;28;20475;-77
2022/08/06 07:43:01;;;;;;;5.53;2.90;;;;;;;;;;4999230;28;20421;-76
2022/08/06 07:45:28;;;;;;;3.53;3.07;;;;;;;;;;4991050;28;20806;-77
2022/08/06 07:47:54;;;;;;;2.87;2.60;;;;;;;;;;5004175;28;20857;-77
2022/08/06 07:50:20;;;;;;;3.90;2.60;;;;;;;;;;5004310;28;20548;-76
2022/08/06 07:52:49;;;;;;;8.33;3.40;;;;;;;;;;4991602;28;20420;-76
2022/08/06 07:55:17;;;;;;;2.80;2.40;;;;;;;;;;5004297;28;20421;-77
2022/08/06 07:57:43;;;;;;;7.23;2.70;;;;;;;;;;5002302;28;20440;-77
2022/08/06 08:00:09;;;;;;;3.40;3.10;;;;;;;;;;4984054;28;20617;-76
2022/08/06 08:02:35;;;;;;;2.50;2.30;;;;;;;;;;4998536;28;20444;-77
2022/08/06 08:07:46;;;;;;;3.07;2.73;;;;;;;;;;4991115;28;20510;-77
2022/08/06 08:10:15;;;;;;;3.40;2.63;;;;;;;;;;5000763;28;20867;-77
2022/08/06 08:12:42;;;;;;;4.10;2.83;;;;;;;;;;4980047;28;20961;-77
2022/08/06 08:15:08;;;;;;;2.77;2.47;;;;;;;;;;4975114;28;20464;-77
2022/08/06 08:17:35;;;;;;;5.20;3.03;;;;;;;;;;4984519;28;20860;-77
2022/08/06 08:20:07;;;;;;;2.73;2.50;;;;;;;;;;4977624;28;20534;-77
2022/08/06 08:22:33;;;;;;;5.90;2.77;;;;;;;;;;4994160;28;20448;-78
2022/08/06 08:24:59;;;;;;;3.90;2.87;;;;;;;;;;4984655;28;20475;-77
2022/08/06 08:27:25;;;;;;;6.77;3.03;;;;;;;;;;4996995;28;20979;-75
2022/08/06 08:29:51;;;;;;;2.77;2.57;;;;;;;;;;5001126;28;20287;-77
2022/08/06 08:32:19;;;;;;;4.17;2.70;;;;;;;;;;4966480;28;20450;-77
2022/08/06 08:34:45;;;;;;;4.67;3.87;;;;;;;;;;5006809;28;20455;-75
2022/08/06 08:37:11;;;;;;;3.93;3.17;;;;;;;;;;4999160;28;20448;-75
2022/08/06 08:39:37;;;;;;;3.57;3.27;;;;;;;;;;4972539;28;20651;-76
2022/08/06 08:42:08;;;;;;;3.23;2.90;;;;;;;;;;4994232;28;20494;-76
2022/08/06 08:44:34;;;;;;;2.97;2.77;;;;;;;;;;4964167;28;20440;-76
2022/08/06 08:47:00;;;;;;;3.50;3.07;;;;;;;;;;4994196;28;20432;-76
2022/08/06 08:49:33;;;;;;;3.10;2.90;;;;;;;;;;4992313;28;20453;-77
2022/08/06 08:51:59;;;;;;;5.57;3.10;;;;;;;;;;5000848;28;21014;-76
2022/08/06 08:54:28;;;;;;;3.47;3.10;;;;;;;;;;4982952;28;20468;-76
2022/08/06 08:56:54;;;;;;;3.07;2.83;;;;;;;;;;4993168;28;20444;-75
2022/08/06 08:59:20;;;;;;;4.30;3.27;;;;;;;;;;4989065;28;20517;-76
2022/08/06 09:01:46;;;;;;;2.97;2.67;;;;;;;;;;4990989;28;20440;-74
2022/08/06 09:04:12;;;;;;;3.40;2.93;;;;;;;;;;5000868;28;20466;-75
2022/08/06 09:06:38;;;;;;;3.70;3.30;;;;;;;;;;5002223;28;20505;-75
2022/08/06 09:09:05;;;;;;;3.47;3.17;;;;;;;;;;4988925;28;20732;-76
2022/08/06 09:11:37;;;;;;;3.20;2.97;;;;;;;;;;4988367;28;20483;-77
2022/08/06 09:14:07;;;;;;;4.03;3.30;;;;;;;;;;5004022;28;20509;-76
2022/08/06 09:16:34;;;;;;;3.17;2.50;;;;;;;;;;4990835;28;20519;-77
2022/08/06 09:19:00;;;;;;;2.70;2.50;;;;;;;;;;4989931;28;20463;-78
2022/08/06 09:21:26;;;;;;;3.40;3.10;;;;;;;;;;4991299;28;20437;-76
2022/08/06 09:23:52;;;;;;;3.87;3.27;;;;;;;;;;5002529;28;20500;-76
2022/08/06 09:26:18;;;;;;;4.10;3.13;;;;;;;;;;4986198;28;20462;-76
2022/08/06 09:28:44;;;;;;;2.73;2.53;;;;;;;;;;4971885;28;20553;-76
2022/08/06 09:31:11;;;;;;;5.23;3.00;;;;;;;;;;4995217;28;20472;-76
2022/08/06 09:33:39;;;;;;;4.50;3.20;;;;;;;;;;5004458;28;20439;-76
2022/08/06 09:36:06;;;;;;;3.10;2.90;;;;;;;;;;5001173;28;20439;-76
2022/08/06 09:38:32;;;;;;;3.37;3.07;;;;;;;;;;5001460;28;20430;-77
2022/08/06 09:41:11;;;;;;;3.30;2.83;;;;;;;;;;4998971;28;20543;-76
2022/08/06 09:43:37;;;;;;;4.13;2.83;;;;;;;;;;5003990;28;20436;-77
2022/08/06 09:46:03;;;;;;;2.90;2.70;;;;;;;;;;5007012;28;20458;-76
2022/08/06 09:48:29;;;;;;;4.07;3.00;;;;;;;;;;5000019;28;20452;-75
2022/08/06 09:50:55;;;;;;;4.53;3.30;;;;;;;;;;4997403;28;20487;-75
2022/08/06 09:53:22;;;;;;;4.87;3.80;;;;;;;;;;4972950;28;20443;-77
2022/08/06 09:55:52;;;;;;;3.17;2.70;;;;;;;;;;5001452;28;20446;-78
2022/08/06 09:58:27;;;;;;;4.30;2.77;;;;;;;;;;4986772;28;20475;-78
2022/08/06 10:00:53;;;;;;;2.47;2.27;;;;;;;;;;5003052;28;20442;-77
2022/08/06 10:03:19;;;;;;;5.70;3.50;;;;;;;;;;5004654;28;20432;-77
2022/08/06 10:05:45;;;;;;;3.80;3.50;;;;;;;;;;4999460;28;20435;-75
2022/08/06 10:08:13;;;;;;;3.70;3.37;;;;;;;;;;5000575;28;20441;-78
2022/08/06 10:10:51;;;;;;;4.60;3.23;;;;;;;;;;4975150;28;20471;-76
2022/08/06 10:13:27;;;;;;;3.70;2.57;;;;;;;;;;4983770;28;20602;-76
2022/08/06 10:15:53;;;;;;;3.30;3.00;;;;;;;;;;5000000;28;20852;-76
2022/08/06 10:18:39;;;;;;;3.47;3.17;;;;;;;;;;5000558;28;20474;-77
2022/08/06 10:21:05;;;;;;;3.70;3.27;;;;;;;;;;5006556;28;20921;-76
2022/08/06 10:23:33;;;;;;;3.40;3.10;;;;;;;;;;5001337;28;20488;-76
2022/08/06 10:25:59;;;;;;;4.90;3.30;;;;;;;;;;4983511;28;20435;-76
2022/08/06 10:28:28;;;;;;;3.87;3.00;;;;;;;;;;5003011;28;20447;-76
2022/08/06 10:30:54;;;;;;;4.63;3.47;;;;;;;;;;5004159;28;20982;-76
2022/08/06 10:33:20;;;;;;;5.23;3.27;;;;;;;;;;4981742;28;21125;-76
2022/08/06 10:35:47;;;;;;;5.07;2.90;;;;;;;;;;4980978;28;20439;-77
2022/08/06 10:38:14;;;;;;;3.33;2.70;;;;;;;;;;4983447;28;20442;-75
2022/08/06 10:40:40;;;;;;;4.33;2.97;;;;;;;;;;4968869;28;23378;-76
2022/08/06 10:43:06;;;;;;;2.73;2.53;;;;;;;;;;4984707;28;20452;-76
2022/08/06 10:45:33;;;;;;;3.63;2.73;;;;;;;;;;4983620;28;20478;-76
2022/08/06 10:47:59;;;;;;;3.13;2.83;;;;;;;;;;4987375;28;20664;-76
2022/08/06 10:50:25;;;;;;;3.73;3.00;;;;;;;;;;4984214;28;20966;-76
2022/08/06 10:52:54;;;;;;;3.23;2.70;;;;;;;;;;4983239;28;20194;-76
2022/08/06 10:55:20;;;;;;;5.20;2.40;;;;;;;;;;4981919;28;20428;-77
2022/08/06 10:57:55;;;;;;;3.87;2.53;;;;;;;;;;4982382;28;20424;-76
2022/08/06 11:00:22;;;;;;;4.50;2.80;;;;;;;;;;4982309;28;20459;-76
2022/08/06 11:02:59;;;;;;;8.20;3.20;;;;;;;;;;4973964;28;20440;-77
2022/08/06 11:05:28;;;;;;;5.27;2.67;;;;;;;;;;4985347;28;20462;-76
2022/08/06 11:08:13;;;;;;;3.90;3.23;;;;;;;;;;4967474;28;20557;-75
2022/08/06 11:10:39;;;;;;;8.33;2.80;;;;;;;;;;4979566;28;20467;-76
2022/08/06 11:13:24;;;;;;;3.60;3.10;;;;;;;;;;4977684;28;20431;-75
2022/08/06 11:15:50;;;;;;;3.80;3.40;;;;;;;;;;4982430;28;21037;-75
2022/08/06 11:18:16;;;;;;;3.30;3.00;;;;;;;;;;4963897;28;20455;-75
2022/08/06 11:20:42;;;;;;;5.50;3.00;;;;;;;;;;4971131;28;20452;-75
2022/08/06 11:23:12;;;;;;;5.37;3.33;;;;;;;;;;4983289;28;20572;-75
2022/08/06 11:25:39;;;;;;;4.80;3.00;;;;;;;;;;4986052;28;20435;-76
2022/08/06 11:28:05;;;;;;;3.20;2.80;;;;;;;;;;4984034;28;20432;-76
2022/08/06 11:30:37;;;;;;;6.40;2.80;;;;;;;;;;4967008;28;20475;-75
2022/08/06 11:33:13;;;;;;;4.33;3.40;;;;;;;;;;4992477;28;20925;-75
2022/08/06 11:35:41;;;;;;;3.77;3.23;;;;;;;;;;4952408;28;20448;-77
2022/08/06 11:38:07;;;;;;;5.53;2.70;;;;;;;;;;4984179;28;20475;-77
2022/08/06 11:40:52;;;;;;;2.90;2.33;;;;;;;;;;4979368;28;20482;-75
2022/08/06 11:43:37;;;;;;;3.40;2.43;;;;;;;;;;4984230;28;21928;-77
2022/08/06 11:46:18;;;;;;;6.10;3.10;;;;;;;;;;4992004;28;20550;-76
2022/08/06 11:49:07;;;;;;;2.40;2.20;;;;;;;;;;4968735;28;20436;-77
2022/08/06 11:51:53;;;;;;;3.40;3.10;;;;;;;;;;4985425;28;20482;-76
2022/08/06 11:54:28;;;;;;;3.83;3.20;;;;;;;;;;4989162;28;20432;-74
2022/08/06 11:57:06;;;;;;;4.40;3.13;;;;;;;;;;4985462;28;22391;-77
2022/08/06 11:59:41;;;;;;;3.60;3.30;;;;;;;;;;4966344;28;20482;-76
2022/08/06 12:02:08;;;;;;;4.50;2.93;;;;;;;;;;4988791;28;20443;-77
2022/08/06 12:04:42;;;;;;;3.37;3.07;;;;;;;;;;4992348;28;20449;-76
2022/08/06 12:07:26;;;;;;;2.90;2.67;;;;;;;;;;4988429;28;20444;-76
2022/08/06 12:10:02;;;;;;;9.40;2.80;;;;;;;;;;5000656;28;20791;-75
2022/08/06 12:12:34;;;;;;;2.90;2.60;;;;;;;;;;4970862;28;20450;-78
2022/08/06 12:15:05;;;;;;;3.10;2.57;;;;;;;;;;4974228;28;21010;-77
2022/08/06 12:17:31;;;;;;;3.70;2.40;;;;;;;;;;4984641;28;20459;-76
2022/08/06 12:20:03;;;;;;;3.63;2.53;;;;;;;;;;4984385;28;20432;-76
2022/08/06 12:22:31;;;;;;;3.83;3.50;;;;;;;;;;4970359;28;20537;-76
2022/08/06 12:25:00;;;;;;;2.60;2.40;;;;;;;;;;4989321;28;20428;-77
2022/08/06 12:27:31;;;;;;;4.40;2.67;;;;;;;;;;4984469;28;20647;-76
2022/08/06 12:30:28;;;;;;;2.90;2.70;;;;;;;;;;4987676;28;20440;-76
2022/08/06 12:33:00;;;;;;;3.87;2.60;;;;;;;;;;4997240;28;20477;-76
2022/08/06 12:35:30;;;;;;;3.03;2.73;;;;;;;;;;4969851;28;20452;-74
2022/08/06 12:37:56;;;;;;;3.30;2.67;;;;;;;;;;4984706;28;20482;-75
2022/08/06 12:40:28;;;;;;;5.40;2.80;;;;;;;;;;4988028;28;20476;-75
2022/08/06 12:46:40;;;;;;;3.20;2.90;;;;;;;;;;4958923;28;20542;-74
2022/08/06 12:49:09;;;;;;;7.20;2.90;;;;;;;;;;4946318;28;20462;-76
2022/08/06 12:51:35;;;;;;;3.70;2.53;;;;;;;;;;4980708;28;20510;-76
2022/08/06 12:54:05;;;;;;;5.13;3.00;;;;;;;;;;4992940;28;20439;-77
2022/08/06 12:56:31;;;;;;;4.00;2.80;;;;;;;;;;4981633;28;20690;-76
2022/08/06 12:58:57;;;;;;;2.77;2.20;;;;;;;;;;4979310;28;20502;-76
2022/08/06 13:01:24;;;;;;;3.10;2.80;;;;;;;;;;4979077;28;20856;-76
2022/08/06 13:03:51;;;;;;;2.80;2.27;;;;;;;;;;4970512;28;20443;-76
2022/08/06 13:06:17;;;;;;;3.77;2.30;;;;;;;;;;4978253;28;21047;-76
2022/08/06 13:08:54;;;;;;;2.50;2.10;;;;;;;;;;4971146;28;20467;-76
2022/08/06 13:11:24;;;;;;;2.93;2.17;;;;;;;;;;4954645;28;21403;-77
2022/08/06 13:13:50;;;;;;;3.27;2.83;;;;;;;;;;4946082;28;20444;-77
2022/08/06 13:16:16;;;;;;;4.03;2.53;;;;;;;;;;4982194;28;20443;-74
2022/08/06 13:18:43;;;;;;;2.30;2.10;;;;;;;;;;4953745;28;20464;-77
2022/08/06 13:21:19;;;;;;;5.00;2.70;;;;;;;;;;4989962;28;20441;-77
2022/08/06 13:23:52;;;;;;;2.97;2.50;;;;;;;;;;4998464;28;21256;-76
2022/08/06 13:26:28;;;;;;;4.90;2.43;;;;;;;;;;4954211;28;20532;-75
2022/08/06 13:29:06;;;;;;;4.30;2.57;;;;;;;;;;4992614;28;20511;-74
2022/08/06 13:31:32;;;;;;;6.50;3.17;;;;;;;;;;4974736;28;20468;-76
2022/08/06 13:34:02;;;;;;;3.00;2.00;;;;;;;;;;4983820;28;20523;-77
2022/08/06 13:36:28;;;;;;;2.77;1.83;;;;;;;;;;5010896;28;20460;-77
2022/08/06 13:38:55;;;;;;;3.30;2.43;;;;;;;;;;5007836;28;20442;-77
2022/08/06 13:44:39;;;;;;;7.10;2.60;;;;;;;;;;4974628;28;20515;-76
2022/08/06 13:47:16;;;;;;;4.10;2.13;;;;;;;;;;4979279;28;20462;-74
2022/08/06 13:49:49;;;;;;;3.73;2.00;;;;;;;;;;4959644;28;20464;-76
2022/08/06 13:52:15;;;;;;;2.20;2.00;;;;;;;;;;4961221;28;20464;-75
2022/08/06 13:54:42;;;;;;;2.50;2.30;;;;;;;;;;4988196;28;20424;-77
2022/08/06 13:57:35;;;;;;;3.07;2.60;;;;;;;;;;4980884;28;20212;-76
2022/08/06 14:00:06;;;;;;;2.40;2.00;;;;;;;;;;4997965;28;20816;-75
2022/08/06 14:02:35;;;;;;;4.03;1.77;;;;;;;;;;4991505;28;20467;-76
2022/08/06 14:05:17;;;;;;;2.50;1.87;;;;;;;;;;4982986;28;20506;-77
2022/08/06 14:07:43;;;;;;;2.60;1.93;;;;;;;;;;5002474;28;20447;-75
2022/08/06 14:10:18;;;;;;;3.00;1.83;;;;;;;;;;4993415;28;20439;-76
2022/08/06 14:15:35;;;;;;;4.70;2.17;;;;;;;;;;4981499;28;20471;-75
2022/08/06 14:18:01;;;;;;;4.33;2.30;;;;;;;;;;4989934;28;20523;-75
2022/08/06 14:20:27;;;;;;;3.13;2.20;;;;;;;;;;4988434;28;20510;-74
2022/08/06 14:22:53;;;;;;;3.23;2.30;;;;;;;;;;4984836;28;20420;-74
2022/08/06 14:25:20;;;;;;;2.80;2.20;;;;;;;;;;4990269;28;20942;-77
2022/08/06 14:27:46;;;;;;;2.80;2.60;;;;;;;;;;5004624;28;20559;-77
2022/08/06 14:30:12;;;;;;;4.40;2.40;;;;;;;;;;5000480;28;20554;-77
2022/08/06 14:32:38;;;;;;;2.60;2.00;;;;;;;;;;4986860;28;21429;-75
2022/08/06 14:35:05;;;;;;;3.83;2.10;;;;;;;;;;4990072;28;20519;-74
2022/08/06 14:37:31;;;;;;;3.30;2.57;;;;;;;;;;4996471;28;20444;-74
2022/08/06 14:39:58;;;;;;;6.43;3.17;;;;;;;;;;4991591;28;20504;-77
2022/08/06 14:45:09;;;;;;;4.97;2.27;;;;;;;;;;5004992;28;20450;-77
2022/08/06 14:47:38;;;;;;;5.20;2.23;;;;;;;;;;4970428;28;20969;-77
2022/08/06 14:50:04;;;;;;;3.27;2.07;;;;;;;;;;4973256;28;20537;-78
2022/08/06 14:52:31;;;;;;;3.23;2.03;;;;;;;;;;4984657;28;20459;-78
2022/08/06 14:54:59;;;;;;;3.80;2.40;;;;;;;;;;5005956;28;20487;-76
2022/08/06 14:57:25;;;;;;;2.17;1.90;;;;;;;;;;4985709;28;21645;-75
2022/08/06 14:59:54;;;;;;;7.30;2.47;;;;;;;;;;4994641;28;20431;-77
2022/08/06 15:02:21;;;;;;;2.53;2.20;;;;;;;;;;4993297;28;20542;-77
2022/08/06 15:04:47;;;;;;;2.70;2.10;;;;;;;;;;5006500;28;20543;-76
2022/08/06 15:07:13;;;;;;;3.77;2.13;;;;;;;;;;5007924;28;20440;-76
2022/08/06 15:09:39;;;;;;;2.30;1.90;;;;;;;;;;5011889;28;21003;-74